Time;durP1;ratioP1;P1;durP2;ratioP2;P2;SDS_P1;SDS_P2;PMS_P1;PMS_P2;Temp;Humidity;BMP_temperature;BMP_pressure;BME280_temperature;BME280_humidity;BME280_pressure;Samples;Min_cycle;Max_cycle;Signal;HPM_P1;HPM_P2
2022/12/31 00:04:09;;;;;;;;;;;;;;;17.47;39.46;99288.63;10571390;28;1215;-71
2022/12/31 00:09:10;;;;;;;;;;;;;;;17.51;39.51;99282.00;10554151;28;1905;-71
2022/12/31 00:14:10;;;;;;;;;;;;;;;17.54;39.58;99238.41;10589997;28;1235;-71
2022/12/31 00:19:10;;;;;;;;;;;;;;;17.59;39.65;99228.94;10570922;28;888;-71
2022/12/31 00:24:11;;;;;;;;;;;;;;;17.64;39.41;99223.19;10571816;28;1294;-71
2022/12/31 00:29:11;;;;;;;;;;;;;;;17.63;39.65;99225.00;10588812;28;1910;-71
2022/12/31 00:34:11;;;;;;;;;;;;;;;17.63;39.65;99224.16;10588553;28;1262;-71
2022/12/31 00:39:12;;;;;;;;;;;;;;;17.62;39.53;99217.22;10571604;28;1004;-71
2022/12/31 00:44:12;;;;;;;;;;;;;;;17.59;39.83;99217.50;10588158;28;1247;-67
2022/12/31 00:49:12;;;;;;;;;;;;;;;17.55;39.75;99222.28;10569902;28;1957;-71
2022/12/31 00:54:12;;;;;;;;;;;;;;;17.52;39.95;99214.69;10569565;28;1189;-70
2022/12/31 00:59:12;;;;;;;;;;;;;;;17.49;39.98;99220.31;10588083;28;987;-71
2022/12/31 01:04:13;;;;;;;;;;;;;;;17.47;40.25;99210.88;10587292;28;1279;-71
2022/12/31 01:09:14;;;;;;;;;;;;;;;17.43;40.18;99196.25;10569090;28;1966;-71
2022/12/31 01:14:15;;;;;;;;;;;;;;;17.45;40.20;99186.31;10586851;28;1255;-71
2022/12/31 01:19:16;;;;;;;;;;;;;;;17.47;40.09;99147.97;10591022;28;1085;-71
2022/12/31 01:24:16;;;;;;;;;;;;;;;17.51;40.14;99121.94;10588749;28;1189;-71
2022/12/31 01:29:16;;;;;;;;;;;;;;;17.55;40.10;99120.63;10568335;28;1905;-71
2022/12/31 01:34:16;;;;;;;;;;;;;;;17.57;40.00;99098.22;10586020;28;1278;-71
2022/12/31 01:39:16;;;;;;;;;;;;;;;17.59;40.13;99064.41;10586446;28;991;-71
2022/12/31 01:44:26;;;;;;;;;;;;;;;17.58;40.31;99052.13;10585529;28;1208;-71
2022/12/31 01:49:36;;;;;;;;;;;;;;;17.53;40.28;99027.91;10585986;28;1914;-71
2022/12/31 01:54:38;;;;;;;;;;;;;;;17.50;40.36;99008.84;10567770;28;880;-72
2022/12/31 01:59:38;;;;;;;;;;;;;;;17.44;40.64;98991.78;10584989;28;1178;-71
2022/12/31 02:04:38;;;;;;;;;;;;;;;17.40;40.55;98960.41;10567287;28;1028;-71
2022/12/31 02:09:39;;;;;;;;;;;;;;;17.37;40.94;98943.03;10584638;28;1909;-71
2022/12/31 02:14:43;;;;;;;;;;;;;;;17.32;40.85;98951.47;10565977;28;773;-69
2022/12/31 02:20:02;;;;;;;;;;;;;;;17.34;40.95;98906.22;10566317;28;1180;-70
2022/12/31 02:25:20;;;;;;;;;;;;;;;17.35;40.99;98914.00;10584654;28;820;-71
2022/12/31 02:30:21;;;;;;;;;;;;;;;17.41;40.74;98863.91;10584239;28;1914;-70
2022/12/31 02:35:23;;;;;;;;;;;;;;;17.48;40.52;98896.72;10566491;28;872;-67
2022/12/31 02:40:23;;;;;;;;;;;;;;;17.51;40.62;98864.53;10565735;28;1263;-68
2022/12/31 02:45:27;;;;;;;;;;;;;;;17.50;40.79;98869.03;10548740;28;903;-69
2022/12/31 02:50:29;;;;;;;;;;;;;;;17.49;40.78;98862.06;10565513;28;1905;-68
2022/12/31 02:55:51;;;;;;;;;;;;;;;17.47;40.92;98849.97;10565408;28;872;-66
2022/12/31 03:06:11;;;;;;;;;;;;;;;17.42;41.20;98836.38;10568655;28;686;-67
2022/12/31 03:12:44;;;;;;;;;;;;;;;17.41;40.96;98814.34;10583158;28;1909;-67
2022/12/31 03:16:33;;;;;;;;;;;;;;;17.47;40.89;98794.25;10583194;28;843;-67
2022/12/31 03:26:52;;;;;;;;;;;;;;;17.59;40.69;98783.06;10569511;28;1267;-66
2022/12/31 03:31:52;;;;;;;;;;;;;;;17.62;40.75;98766.03;10573043;28;1905;-66
2022/12/31 03:36:53;;;;;;;;;;;;;;;17.61;40.76;98757.22;10592072;28;850;-67
2022/12/31 03:41:53;;;;;;;;;;;;;;;17.60;40.81;98757.38;10591136;28;1387;-67
2022/12/31 03:46:53;;;;;;;;;;;;;;;17.57;40.97;98741.78;10572209;28;756;-67
2022/12/31 03:51:53;;;;;;;;;;;;;;;17.55;40.92;98762.34;10572188;28;1906;-67
2022/12/31 03:56:53;;;;;;;;;;;;;;;17.52;41.00;98736.19;10590118;28;946;-66
2022/12/31 04:01:53;;;;;;;;;;;;;;;17.50;41.14;98725.72;10554674;28;1212;-66
2022/12/31 04:06:54;;;;;;;;;;;;;;;17.49;41.09;98717.94;10589781;28;890;-65
2022/12/31 04:11:54;;;;;;;;;;;;;;;17.48;41.05;98708.31;10594916;28;1906;-68
2022/12/31 04:16:54;;;;;;;;;;;;;;;17.48;41.30;98719.78;10571678;28;801;-70
2022/12/31 04:21:54;;;;;;;;;;;;;;;17.51;41.12;98710.63;10571367;28;1288;-67
2022/12/31 04:26:55;;;;;;;;;;;;;;;17.53;41.20;98720.09;10588726;28;1096;-65
2022/12/31 04:31:55;;;;;;;;;;;;;;;17.55;41.33;98696.84;10589728;28;1909;-66
2022/12/31 04:36:55;;;;;;;;;;;;;;;17.57;41.12;98692.19;10570769;28;863;-67
2022/12/31 04:41:55;;;;;;;;;;;;;;;17.49;41.27;98704.69;10588074;28;1199;-66
2022/12/31 04:46:56;;;;;;;;;;;;;;;17.37;39.92;98706.91;10588892;28;936;-67
2022/12/31 04:51:56;;;;;;;;;;;;;;;17.43;37.78;98708.88;10588317;28;1964;-67
2022/12/31 04:56:56;;;;;;;;;;;;;;;17.13;38.47;98669.91;10588043;28;919;-69
2022/12/31 05:01:56;;;;;;;;;;;;;;;17.04;38.84;98695.63;10587400;28;1275;-66
2022/12/31 05:06:56;;;;;;;;;;;;;;;17.03;39.11;98693.16;10568949;28;841;-67
2022/12/31 05:11:57;;;;;;;;;;;;;;;17.08;39.07;98689.00;10586919;28;1965;-71
2022/12/31 05:16:58;;;;;;;;;;;;;;;17.13;39.11;98680.53;10587414;28;840;-67
2022/12/31 05:27:17;;;;;;;;;;;;;;;17.26;37.38;98678.94;10586728;28;1329;-66
2022/12/31 05:32:17;;;;;;;;;;;;;;;17.25;37.66;98684.41;10586073;28;1975;-64
2022/12/31 05:37:17;;;;;;;;;;;;;;;17.27;37.67;98691.22;10586653;28;986;-65
2022/12/31 05:42:17;;;;;;;;;;;;;;;17.28;37.69;98700.81;10586901;28;1248;-65
2022/12/31 05:47:17;;;;;;;;;;;;;;;17.34;37.77;98718.69;10585606;28;863;-65
2022/12/31 05:52:18;;;;;;;;;;;;;;;17.41;37.72;98721.47;10566316;28;1909;-66
2022/12/31 05:57:18;;;;;;;;;;;;;;;17.47;37.61;98712.00;10585749;28;765;-65
2022/12/31 06:02:19;;;;;;;;;;;;;;;17.48;37.90;98710.97;10566929;28;1324;-66
2022/12/31 06:07:19;;;;;;;;;;;;;;;17.41;36.46;98707.38;10567213;28;939;-64
2022/12/31 06:12:19;;;;;;;;;;;;;;;17.45;36.70;98729.91;10566350;28;1902;-65
2022/12/31 06:17:21;;;;;;;;;;;;;;;17.18;37.50;98733.84;10585181;28;937;-64
2022/12/31 06:22:21;;;;;;;;;;;;;;;17.14;37.83;98746.66;10584236;28;1193;-64
2022/12/31 06:27:21;;;;;;;;;;;;;;;17.15;37.98;98750.97;10565935;28;1347;-65
2022/12/31 06:32:21;;;;;;;;;;;;;;;17.15;37.95;98753.59;10565633;28;1910;-65
2022/12/31 06:37:22;;;;;;;;;;;;;;;17.17;38.18;98740.97;10566362;28;958;-64
2022/12/31 06:42:22;;;;;;;;;;;;;;;17.19;38.25;98780.59;10584496;28;1198;-65
2022/12/31 06:47:22;;;;;;;;;;;;;;;17.21;37.28;98784.75;10584422;28;827;-65
2022/12/31 06:52:22;;;;;;;;;;;;;;;17.24;36.95;98787.03;10583792;28;1973;-65
2022/12/31 06:57:23;;;;;;;;;;;;;;;17.25;37.08;98778.09;10584723;28;859;-65
2022/12/31 07:02:26;;;;;;;;;;;;;;;17.27;37.11;98793.84;10593666;28;1231;-66
2022/12/31 07:07:44;;;;;;;;;;;;;;;17.29;37.28;98807.75;10596182;28;927;-65
2022/12/31 07:12:56;;;;;;;;;;;;;;;17.31;37.44;98787.19;10591743;28;1262;-65
2022/12/31 07:18:00;;;;;;;;;;;;;;;17.33;37.42;98799.28;10591640;28;1002;-65
2022/12/31 07:23:00;;;;;;;;;;;;;;;17.36;37.36;98812.22;10556246;28;1205;-68
2022/12/31 07:28:19;;;;;;;;;;;;;;;17.35;37.71;98804.41;10591372;28;1906;-67
2022/12/31 07:33:26;;;;;;;;;;;;;;;17.24;36.71;98795.00;10572872;28;1380;-66
2022/12/31 07:38:35;;;;;;;;;;;;;;;17.37;36.63;98818.34;10572491;28;1166;-65
2022/12/31 07:44:02;;;;;;;;;;;;;;;17.48;36.34;98793.22;10590534;28;1175;-66
2022/12/31 07:49:03;;;;;;;;;;;;;;;17.55;36.61;98808.28;10587398;28;1956;-66
2022/12/31 07:54:03;;;;;;;;;;;;;;;17.58;36.59;98807.97;10572077;28;1261;-65
2022/12/31 07:59:22;;;;;;;;;;;;;;;17.42;36.63;98805.38;10572753;28;1224;-66
2022/12/31 08:04:28;;;;;;;;;;;;;;;17.18;37.70;98801.00;10571292;28;2516;-65
2022/12/31 08:09:40;;;;;;;;;;;;;;;17.17;37.79;98795.84;10590153;28;1905;-65
2022/12/31 08:14:42;;;;;;;;;;;;;;;17.23;37.81;98809.28;10570384;28;872;-66
2022/12/31 08:19:44;;;;;;;;;;;;;;;17.20;36.33;98814.09;10589029;28;1257;-66
2022/12/31 08:24:47;;;;;;;;;;;;;;;17.30;36.68;98834.13;10589465;28;920;-67
2022/12/31 08:29:50;;;;;;;;;;;;;;;17.36;36.71;98846.69;10588569;28;1910;-67
2022/12/31 08:34:57;;;;;;;;;;;;;;;17.46;36.43;98827.09;10570952;28;884;-67
2022/12/31 08:40:06;;;;;;;;;;;;;;;17.57;36.45;98832.84;10570074;28;1299;-67
2022/12/31 08:45:07;;;;;;;;;;;;;;;17.58;36.55;98828.34;10570612;28;840;-66
2022/12/31 08:50:12;;;;;;;;;;;;;;;17.57;36.76;98834.66;10587686;28;1901;-66
2022/12/31 08:55:15;;;;;;;;;;;;;;;17.43;36.90;98836.22;10569651;28;939;-67
2022/12/31 09:00:16;;;;;;;;;;;;;;;17.20;37.13;98849.41;10570847;28;1281;-68
2022/12/31 09:05:18;;;;;;;;;;;;;;;17.19;37.28;98868.94;10569058;28;872;-66
2022/12/31 09:10:20;;;;;;;;;;;;;;;17.14;37.91;98903.13;10569332;28;1973;-66
2022/12/31 09:15:40;;;;;;;;;;;;;;;17.28;36.27;98897.13;10570029;28;864;-66
2022/12/31 09:20:41;;;;;;;;;;;;;;;17.36;36.53;98914.84;10586516;28;1277;-66
2022/12/31 09:25:45;;;;;;;;;;;;;;;17.43;36.53;98902.56;10586514;28;915;-66
2022/12/31 09:31:02;;;;;;;;;;;;;;;17.51;36.57;98918.44;10568043;28;1901;-66
2022/12/31 09:36:06;;;;;;;;;;;;;;;17.57;36.66;98930.19;10568008;28;1089;-66
2022/12/31 09:41:12;;;;;;;;;;;;;;;17.60;36.66;98940.50;10568088;28;1277;-67
2022/12/31 09:46:18;;;;;;;;;;;;;;;17.59;36.93;98936.16;10586355;28;955;-65
2022/12/31 09:51:19;;;;;;;;;;;;;;;17.59;36.97;98952.94;10586044;28;1906;-67
2022/12/31 09:56:21;;;;;;;;;;;;;;;17.57;37.03;98941.66;10595994;28;819;-66
2022/12/31 10:01:25;;;;;;;;;;;;;;;17.56;37.08;98937.34;10566955;28;1260;-66
2022/12/31 10:06:25;;;;;;;;;;;;;;;17.41;36.83;98940.84;10567260;28;1089;-66
2022/12/31 10:11:31;;;;;;;;;;;;;;;17.55;35.96;98934.84;10584620;28;1969;-67
2022/12/31 10:16:44;;;;;;;;;;;;;;;17.61;36.01;98924.44;10585591;28;1037;-66
2022/12/31 10:22:02;;;;;;;;;;;;;;;17.65;36.14;98920.41;10584347;28;1185;-67
2022/12/31 10:27:23;;;;;;;;;;;;;;;17.66;36.31;98926.56;10584033;28;1163;-66
2022/12/31 10:32:26;;;;;;;;;;;;;;;17.65;36.38;98914.28;10583442;28;1969;-65
2022/12/31 10:37:47;;;;;;;;;;;;;;;17.70;36.40;98917.25;10565421;28;896;-67
2022/12/31 10:42:47;;;;;;;;;;;;;;;17.63;35.83;98919.75;10566249;28;1259;-67
2022/12/31 10:47:47;;;;;;;;;;;;;;;17.72;35.68;98933.84;10583842;28;863;-67
2022/12/31 10:53:06;;;;;;;;;;;;;;;17.70;35.82;98931.34;10565308;28;1906;-67
2022/12/31 10:58:12;;;;;;;;;;;;;;;17.73;36.10;98938.97;10584127;28;1034;-66
2022/12/31 11:03:38;;;;;;;;;;;;;;;17.70;36.28;98946.44;10583737;28;1251;-65
2022/12/31 11:08:48;;;;;;;;;;;;;;;17.67;36.53;98928.22;10565895;28;1972;-66
2022/12/31 11:13:52;;;;;;;;;;;;;;;17.70;36.69;98925.19;10565161;28;1295;-66
2022/12/31 11:19:01;;;;;;;;;;;;;;;17.56;36.43;98909.97;10584461;28;828;-66
2022/12/31 11:24:01;;;;;;;;;;;;;;;17.50;36.39;98889.41;10565135;28;1225;-68
2022/12/31 11:29:04;;;;;;;;;;;;;;;17.48;36.31;98891.41;10564645;28;1953;-67
2022/12/31 11:34:13;;;;;;;;;;;;;;;17.44;36.42;98876.84;10582877;28;1282;-66
2022/12/31 11:39:23;;;;;;;;;;;;;;;17.42;36.73;98886.78;10583534;28;860;-64
2022/12/31 11:44:32;;;;;;;;;;;;;;;17.40;36.75;98879.00;10564725;28;1183;-66
2022/12/31 11:49:51;;;;;;;;;;;;;;;17.33;37.07;98888.63;10568122;28;1919;-68
2022/12/31 11:55:09;;;;;;;;;;;;;;;17.23;37.28;98888.03;10590184;28;982;-66
2022/12/31 12:00:15;;;;;;;;;;;;;;;17.16;37.60;98889.69;10572138;28;1278;-68
2022/12/31 12:05:16;;;;;;;;;;;;;;;17.09;36.39;98870.16;10572419;28;938;-67
2022/12/31 12:10:16;;;;;;;;;;;;;;;17.12;36.39;98883.88;10571357;28;1914;-67
2022/12/31 12:15:19;;;;;;;;;;;;;;;17.02;36.92;98869.16;10589434;28;970;-67
2022/12/31 12:20:21;;;;;;;;;;;;;;;17.06;37.13;98873.13;10570949;28;1270;-65
2022/12/31 12:29:25;;;;;;;;;;;;;;;18.72;42.94;98834.59;10537973;27;1607;-62
2022/12/31 12:34:29;;;;;;;;;;;;;;;18.68;42.90;98849.28;10536907;28;1362;-63
2022/12/31 12:39:30;;;;;;;;;;;;;;;18.62;43.22;98865.09;10537943;28;749;-63
2022/12/31 12:44:30;;;;;;;;;;;;;;;18.54;43.06;98851.88;10536456;28;1986;-64
2022/12/31 12:49:31;;;;;;;;;;;;;;;18.61;42.93;98852.84;10536805;28;781;-64
2022/12/31 12:54:35;;;;;;;;;;;;;;;18.69;42.98;98850.91;10534766;28;1258;-63
2022/12/31 12:59:42;;;;;;;;;;;;;;;18.64;43.58;98828.53;10535381;28;840;-64
2022/12/31 13:04:42;;;;;;;;;;;;;;;18.57;43.75;98832.91;10534471;28;2080;-63
2022/12/31 13:09:46;;;;;;;;;;;;;;;18.57;43.44;98828.44;10534844;28;1262;-64
2022/12/31 13:15:06;;;;;;;;;;;;;;;18.60;43.65;98832.56;10533606;28;1092;-62
2022/12/31 13:20:22;;;;;;;;;;;;;;;18.58;43.50;98811.47;10534384;28;1288;-63
2022/12/31 13:25:35;;;;;;;;;;;;;;;18.57;43.60;98817.78;10541795;28;1914;-65
2022/12/31 13:30:36;;;;;;;;;;;;;;;18.60;43.31;98814.78;10575246;28;1268;-62
2022/12/31 13:35:47;;;;;;;;;;;;;;;18.63;43.32;98801.13;10576785;28;824;-62
2022/12/31 13:40:50;;;;;;;;;;;;;;;18.64;43.28;98793.97;10546272;28;1256;-62
2022/12/31 13:45:56;;;;;;;;;;;;;;;18.57;43.34;98820.44;10547540;28;1901;-62
2022/12/31 13:51:17;;;;;;;;;;;;;;;18.57;43.44;98814.31;10547628;28;1452;-62
2022/12/31 13:56:22;;;;;;;;;;;;;;;18.56;43.49;98817.94;10546842;28;1041;-62
2022/12/31 14:01:25;;;;;;;;;;;;;;;18.52;43.32;98809.50;10546288;28;1200;-63
2022/12/31 14:06:31;;;;;;;;;;;;;;;18.55;43.52;98810.97;10545730;28;1914;-62
2022/12/31 14:11:49;;;;;;;;;;;;;;;18.54;43.44;98812.00;10546645;28;1248;-62
2022/12/31 14:16:52;;;;;;;;;;;;;;;18.50;42.82;98800.88;10546560;28;939;-62
2022/12/31 14:21:58;;;;;;;;;;;;;;;18.48;43.67;98797.56;10545971;28;1221;-62
2022/12/31 14:26:59;;;;;;;;;;;;;;;18.42;43.57;98800.94;10545046;28;1910;-62
2022/12/31 14:32:00;;;;;;;;;;;;;;;18.43;43.65;98789.31;10544415;28;1189;-62
2022/12/31 14:37:01;;;;;;;;;;;;;;;18.53;43.19;98781.94;10545359;28;974;-63
2022/12/31 14:42:25;;;;;;;;;;;;;;;18.61;42.93;98786.38;10544087;28;1188;-62
2022/12/31 14:47:25;;;;;;;;;;;;;;;18.63;42.52;98768.38;10536624;28;1909;-63
2022/12/31 14:52:29;;;;;;;;;;;;;;;18.64;42.92;98788.66;10544507;28;1275;-63
2022/12/31 14:57:34;;;;;;;;;;;;;;;18.65;43.40;98785.00;10543587;28;848;-63
2022/12/31 15:02:34;;;;;;;;;;;;;;;18.61;43.27;98789.03;10544408;28;1173;-63
2022/12/31 15:07:57;;;;;;;;;;;;;;;18.59;43.62;98799.84;10543022;28;1980;-63
2022/12/31 15:13:05;;;;;;;;;;;;;;;18.59;43.34;98821.09;10516030;28;1543;-65
2022/12/31 15:18:11;;;;;;;;;;;;;;;18.64;43.16;98826.69;10542637;28;868;-64
2022/12/31 15:23:12;;;;;;;;;;;;;;;18.66;43.28;98832.66;10543641;28;1255;-63
2022/12/31 15:28:32;;;;;;;;;;;;;;;18.67;43.20;98834.31;10542571;28;1976;-65
2022/12/31 15:33:33;;;;;;;;;;;;;;;18.75;42.96;98836.09;10542705;28;1217;-65
2022/12/31 15:38:34;;;;;;;;;;;;;;;18.72;43.09;98829.28;10542411;28;1037;-65
2022/12/31 15:43:48;;;;;;;;;;;;;;;18.76;43.00;98824.44;10546446;28;1194;-65
2022/12/31 15:48:54;;;;;;;;;;;;;;;18.71;43.20;98822.31;10541724;28;1901;-63
2022/12/31 15:53:55;;;;;;;;;;;;;;;18.76;42.67;98819.97;10542087;28;1370;-63
2022/12/31 15:58:56;;;;;;;;;;;;;;;18.78;42.84;98828.56;10541189;28;891;-63
2022/12/31 16:03:57;;;;;;;;;;;;;;;18.81;42.82;98849.47;10540755;28;1178;-63
2022/12/31 16:08:57;;;;;;;;;;;;;;;18.81;42.69;98846.81;10541336;28;1972;-63
2022/12/31 16:13:58;;;;;;;;;;;;;;;18.81;42.81;98851.31;10541310;28;1188;-63
2022/12/31 16:18:58;;;;;;;;;;;;;;;18.85;42.78;98872.03;10540707;28;852;-62
2022/12/31 16:24:05;;;;;;;;;;;;;;;18.87;43.55;98879.84;10541721;28;1177;-62
2022/12/31 16:29:05;;;;;;;;;;;;;;;18.88;43.27;98889.47;10542044;28;1906;-65
2022/12/31 16:34:09;;;;;;;;;;;;;;;18.89;45.36;98885.81;10541141;28;1311;-66
2022/12/31 16:39:20;;;;;;;;;;;;;;;18.81;42.97;98884.06;10539919;28;793;-62
2022/12/31 16:44:25;;;;;;;;;;;;;;;18.79;42.83;98893.19;10541270;28;1192;-62
2022/12/31 16:49:26;;;;;;;;;;;;;;;18.79;42.83;98898.53;10541477;28;1901;-64
2022/12/31 16:54:29;;;;;;;;;;;;;;;18.79;42.58;98904.66;10544213;28;1157;-66
2022/12/31 16:59:30;;;;;;;;;;;;;;;18.79;42.41;98904.66;10543756;28;971;-63
2022/12/31 17:04:31;;;;;;;;;;;;;;;18.78;42.39;98915.47;10542527;28;1894;-64
2022/12/31 17:09:33;;;;;;;;;;;;;;;18.83;42.40;98905.16;10540601;28;879;-65
2022/12/31 17:14:33;;;;;;;;;;;;;;;18.80;42.27;98911.66;10547271;28;1174;-65
2022/12/31 17:19:37;;;;;;;;;;;;;;;18.80;42.83;98910.81;10548895;28;1274;-65
2022/12/31 17:24:37;;;;;;;;;;;;;;;18.76;43.24;98913.03;10552837;28;1978;-67
2022/12/31 17:29:38;;;;;;;;;;;;;;;18.79;43.17;98917.13;10549928;28;1286;-64
2022/12/31 17:34:46;;;;;;;;;;;;;;;18.95;43.08;98924.97;10550669;28;937;-66
2022/12/31 17:39:47;;;;;;;;;;;;;;;19.17;43.06;98928.59;10549336;28;1198;-66
2022/12/31 17:44:47;;;;;;;;;;;;;;;19.13;43.69;98929.97;10549929;28;1973;-64
2022/12/31 17:49:47;;;;;;;;;;;;;;;19.08;43.64;98925.19;10547811;28;1295;-72
2022/12/31 17:54:47;;;;;;;;;;;;;;;19.13;43.05;98933.47;10547137;28;921;-66
2022/12/31 17:59:47;;;;;;;;;;;;;;;19.22;42.32;98950.19;10547456;28;1363;-65
2022/12/31 18:04:48;;;;;;;;;;;;;;;19.14;43.06;98940.44;10545593;28;1901;-64
2022/12/31 18:09:48;;;;;;;;;;;;;;;19.09;41.57;98945.47;10546043;28;1263;-65
2022/12/31 18:14:48;;;;;;;;;;;;;;;19.11;42.39;98958.59;10546133;28;908;-63
2022/12/31 18:19:48;;;;;;;;;;;;;;;19.15;41.43;98971.34;10546798;28;1297;-64
2022/12/31 18:24:50;;;;;;;;;;;;;;;19.18;41.40;98983.47;10545284;28;1981;-63
2022/12/31 18:29:50;;;;;;;;;;;;;;;19.24;42.31;98978.25;10546012;28;1323;-65
2022/12/31 18:34:50;;;;;;;;;;;;;;;19.16;41.71;98980.16;10528215;28;1277;-69
2022/12/31 18:39:50;;;;;;;;;;;;;;;19.31;42.78;98962.38;10547773;28;1211;-66
2022/12/31 18:44:50;;;;;;;;;;;;;;;19.30;42.56;98971.38;10543903;28;1969;-64
2022/12/31 18:49:51;;;;;;;;;;;;;;;19.27;42.34;98985.06;10546030;28;1223;-64
2022/12/31 18:54:51;;;;;;;;;;;;;;;19.22;42.49;98988.25;10544263;28;962;-65
2022/12/31 18:59:51;;;;;;;;;;;;;;;19.26;43.20;99013.50;10544762;28;1358;-64
2022/12/31 19:04:52;;;;;;;;;;;;;;;19.33;43.11;99002.13;10544977;28;1906;-62
2022/12/31 19:09:52;;;;;;;;;;;;;;;19.24;43.15;99002.22;10543936;28;1175;-63
2022/12/31 19:14:52;;;;;;;;;;;;;;;19.26;42.98;99024.16;10544329;28;1025;-61
2022/12/31 19:19:52;;;;;;;;;;;;;;;19.26;42.94;99040.13;10543135;28;1228;-61
2022/12/31 19:24:52;;;;;;;;;;;;;;;19.22;42.49;99054.78;10543845;28;1905;-62
2022/12/31 19:29:53;;;;;;;;;;;;;;;19.22;42.66;99054.78;10544562;28;1247;-61
2022/12/31 19:34:53;;;;;;;;;;;;;;;19.23;42.24;99059.09;10524445;28;1151;-63
2022/12/31 19:39:53;;;;;;;;;;;;;;;19.20;42.57;99087.91;10543523;28;1217;-61
2022/12/31 19:44:53;;;;;;;;;;;;;;;19.13;42.11;99071.00;10543772;28;1906;-62
2022/12/31 19:49:53;;;;;;;;;;;;;;;19.16;42.49;99097.22;10541315;28;1185;-61
2022/12/31 19:54:53;;;;;;;;;;;;;;;19.14;42.38;99089.44;10542527;28;860;-62
2022/12/31 19:59:54;;;;;;;;;;;;;;;19.16;42.28;99091.91;10542803;28;1287;-63
2022/12/31 20:04:54;;;;;;;;;;;;;;;19.15;42.49;99119.50;10542125;28;1894;-66
2022/12/31 20:09:54;;;;;;;;;;;;;;;19.16;42.88;99129.16;10543536;28;1291;-67
2022/12/31 20:14:54;;;;;;;;;;;;;;;19.20;42.84;99133.16;10542490;28;1093;-63
2022/12/31 20:19:54;;;;;;;;;;;;;;;19.25;42.68;99133.44;10540614;28;1185;-65
2022/12/31 20:24:55;;;;;;;;;;;;;;;19.28;42.15;99149.06;10540246;28;1905;-63
2022/12/31 20:29:55;;;;;;;;;;;;;;;19.27;42.12;99158.88;10541868;28;1302;-63
2022/12/31 20:34:55;;;;;;;;;;;;;;;19.28;42.34;99165.84;10541931;28;932;-63
2022/12/31 20:39:55;;;;;;;;;;;;;;;19.31;42.42;99183.28;10540787;28;1196;-62
2022/12/31 20:44:55;;;;;;;;;;;;;;;19.27;42.29;99188.16;10541330;28;1894;-66
2022/12/31 20:49:56;;;;;;;;;;;;;;;19.26;42.43;99201.63;10547726;28;1252;-63
2022/12/31 20:54:56;;;;;;;;;;;;;;;19.39;42.81;99201.88;10550467;28;843;-62
2022/12/31 20:59:56;;;;;;;;;;;;;;;19.50;43.17;99214.00;10549870;28;1204;-64
2022/12/31 21:04:56;;;;;;;;;;;;;;;19.45;42.95;99211.00;10550425;28;1965;-64
2022/12/31 21:09:56;;;;;;;;;;;;;;;19.36;42.29;99201.41;10549026;28;1305;-63
2022/12/31 21:14:57;;;;;;;;;;;;;;;19.31;42.36;99203.75;10548896;28;864;-62
2022/12/31 21:19:57;;;;;;;;;;;;;;;19.36;42.54;99217.38;10547262;28;1305;-61
2022/12/31 21:24:59;;;;;;;;;;;;;;;19.35;42.48;99218.38;10548849;28;1890;-64
2022/12/31 21:30:00;;;;;;;;;;;;;;;19.37;42.30;99224.38;10552073;28;1447;-63
2022/12/31 21:35:00;;;;;;;;;;;;;;;19.39;42.19;99231.16;10547558;28;777;-65
2022/12/31 21:40:00;;;;;;;;;;;;;;;19.40;42.17;99231.97;10547821;28;1208;-64
2022/12/31 21:45:00;;;;;;;;;;;;;;;19.42;42.19;99254.78;10548222;28;1969;-62
2022/12/31 21:50:00;;;;;;;;;;;;;;;19.36;42.07;99244.81;10546198;28;1282;-64
2022/12/31 22:06:13;;;;;;;;;;;;;;;19.27;42.11;99249.34;10547322;28;1972;-63
2022/12/31 22:11:13;;;;;;;;;;;;;;;19.31;42.26;99257.81;10542420;28;1224;-62
2022/12/31 22:16:13;;;;;;;;;;;;;;;19.20;42.43;99258.22;10545258;28;995;-64
2022/12/31 22:21:17;;;;;;;;;;;;;;;19.22;42.17;99266.84;10546234;28;1209;-63
2022/12/31 22:26:18;;;;;;;;;;;;;;;19.20;42.27;99282.16;10546288;28;1981;-63
2022/12/31 22:31:19;;;;;;;;;;;;;;;19.18;42.02;99308.09;10546430;28;1213;-61
2022/12/31 22:36:20;;;;;;;;;;;;;;;19.23;42.53;99316.38;10546799;28;1038;-63
2022/12/31 22:41:20;;;;;;;;;;;;;;;19.12;43.03;99314.94;10545999;28;1271;-66
2022/12/31 22:46:21;;;;;;;;;;;;;;;19.23;43.44;99330.53;10545223;28;1905;-63
2022/12/31 22:51:21;;;;;;;;;;;;;;;19.26;43.20;99343.50;10543585;28;1453;-64
2022/12/31 22:56:22;;;;;;;;;;;;;;;19.32;43.79;99357.13;10544011;28;856;-63
2022/12/31 23:01:22;;;;;;;;;;;;;;;19.26;43.66;99369.28;10544727;28;1208;-62
2022/12/31 23:06:22;;;;;;;;;;;;;;;19.29;42.56;99371.63;10544825;28;1963;-62
2022/12/31 23:11:23;;;;;;;;;;;;;;;19.23;43.30;99369.63;10543292;28;1167;-66
2022/12/31 23:27:01;;;;;;;;;;;;;;;19.25;43.23;99384.41;10543352;28;1898;-67
2022/12/31 23:32:01;;;;;;;;;;;;;;;19.24;42.62;99403.22;10542366;28;1195;-63
2022/12/31 23:37:01;;;;;;;;;;;;;;;19.10;42.41;99406.56;10543803;28;912;-62
2022/12/31 23:42:02;;;;;;;;;;;;;;;19.05;42.37;99423.06;10543068;28;1184;-61
2022/12/31 23:47:02;;;;;;;;;;;;;;;19.04;41.72;99423.22;10543497;28;1955;-63
2022/12/31 23:52:02;;;;;;;;;;;;;;;19.01;41.96;99423.53;10543327;28;1299;-61
2022/12/31 23:57:02;;;;;;;;;;;;;;;18.98;41.99;99430.03;10542952;28;1069;-62
